Terminal Aerodrome Forecast
Issued by NWS

Home | Current Version | Previous Version | Text Only | Print | Product List | Glossary On
Versions: 1 2 3 4 5 6 7 8 9 10 11 12 13 14 15 16 17 18 19 20 21 22 23 24 25 26 27 28 29 30 31 32 33 34 35
000
FTUS41 KBTV 251129
TAFPBG
TAF
KPBG 251129Z 2512/2612 22014G28KT P6SM -SHRA SCT015 BKN035 OVC050
      WS020/23040KT
      TEMPO 2512/2514 4SM -RA BR BKN015
     FM251400 23016G32KT P6SM VCSH BKN035 OVC050
     FM252200 25015G28KT P6SM SCT035 OVC060
     FM260200 26012KT P6SM SCT020 OVC035=

USA.gov is the U.S. government's official web portal to all federal, state and local government web resources and services.